sensor_id;sensor_type;location;lat;lon;timestamp;P1;durP1;ratioP1;P2;durP2;ratioP2
11034;SDS011;5571;48.110;-1.706;2024-01-30T00:01:24;25.67;;;9.07;;
11034;SDS011;5571;48.110;-1.706;2024-01-30T00:03:50;22.80;;;8.60;;
11034;SDS011;5571;48.110;-1.706;2024-01-30T00:06:18;22.30;;;8.70;;
11034;SDS011;5571;48.110;-1.706;2024-01-30T00:08:45;21.60;;;9.13;;
11034;SDS011;5571;48.110;-1.706;2024-01-30T00:11:13;22.43;;;8.80;;
11034;SDS011;5571;48.110;-1.706;2024-01-30T00:13:40;29.17;;;9.27;;
11034;SDS011;5571;48.110;-1.706;2024-01-30T00:16:05;23.90;;;8.93;;
11034;SDS011;5571;48.110;-1.706;2024-01-30T00:18:31;18.10;;;9.73;;
11034;SDS011;5571;48.110;-1.706;2024-01-30T00:20:57;25.93;;;9.13;;
11034;SDS011;5571;48.110;-1.706;2024-01-30T00:23:23;26.80;;;8.80;;
11034;SDS011;5571;48.110;-1.706;2024-01-30T00:25:48;28.60;;;9.43;;
11034;SDS011;5571;48.110;-1.706;2024-01-30T00:28:14;29.53;;;9.33;;
11034;SDS011;5571;48.110;-1.706;2024-01-30T00:30:40;23.83;;;8.87;;
11034;SDS011;5571;48.110;-1.706;2024-01-30T00:33:06;21.00;;;8.93;;
11034;SDS011;5571;48.110;-1.706;2024-01-30T00:35:32;20.10;;;9.33;;
11034;SDS011;5571;48.110;-1.706;2024-01-30T00:37:58;27.13;;;8.97;;
11034;SDS011;5571;48.110;-1.706;2024-01-30T00:40:24;24.33;;;9.60;;
11034;SDS011;5571;48.110;-1.706;2024-01-30T00:42:49;28.10;;;9.57;;
11034;SDS011;5571;48.110;-1.706;2024-01-30T00:45:15;32.87;;;9.23;;
11034;SDS011;5571;48.110;-1.706;2024-01-30T00:47:41;23.00;;;9.07;;
11034;SDS011;5571;48.110;-1.706;2024-01-30T00:50:07;20.67;;;8.97;;
11034;SDS011;5571;48.110;-1.706;2024-01-30T00:52:33;20.80;;;8.83;;
11034;SDS011;5571;48.110;-1.706;2024-01-30T00:54:59;23.30;;;8.57;;
11034;SDS011;5571;48.110;-1.706;2024-01-30T00:57:25;26.67;;;9.57;;
11034;SDS011;5571;48.110;-1.706;2024-01-30T00:59:52;29.03;;;10.33;;
11034;SDS011;5571;48.110;-1.706;2024-01-30T01:02:17;26.27;;;9.97;;
11034;SDS011;5571;48.110;-1.706;2024-01-30T01:04:43;27.27;;;9.40;;
11034;SDS011;5571;48.110;-1.706;2024-01-30T01:07:09;24.33;;;9.03;;
11034;SDS011;5571;48.110;-1.706;2024-01-30T01:09:35;35.47;;;9.20;;
11034;SDS011;5571;48.110;-1.706;2024-01-30T01:12:01;23.00;;;9.33;;
11034;SDS011;5571;48.110;-1.706;2024-01-30T01:14:28;30.77;;;9.47;;
11034;SDS011;5571;48.110;-1.706;2024-01-30T01:16:53;23.20;;;8.87;;
11034;SDS011;5571;48.110;-1.706;2024-01-30T01:19:19;27.23;;;8.67;;
11034;SDS011;5571;48.110;-1.706;2024-01-30T01:21:44;23.83;;;8.80;;
11034;SDS011;5571;48.110;-1.706;2024-01-30T01:24:10;34.07;;;9.43;;
11034;SDS011;5571;48.110;-1.706;2024-01-30T01:26:36;31.27;;;9.27;;
11034;SDS011;5571;48.110;-1.706;2024-01-30T01:29:01;29.43;;;8.80;;
11034;SDS011;5571;48.110;-1.706;2024-01-30T01:31:29;25.47;;;8.93;;
11034;SDS011;5571;48.110;-1.706;2024-01-30T01:33:55;24.90;;;9.40;;
11034;SDS011;5571;48.110;-1.706;2024-01-30T01:36:20;21.60;;;9.07;;
11034;SDS011;5571;48.110;-1.706;2024-01-30T01:38:46;26.43;;;9.37;;
11034;SDS011;5571;48.110;-1.706;2024-01-30T01:41:11;20.23;;;8.87;;
11034;SDS011;5571;48.110;-1.706;2024-01-30T01:43:37;26.33;;;9.13;;
11034;SDS011;5571;48.110;-1.706;2024-01-30T01:46:04;19.90;;;7.53;;
11034;SDS011;5571;48.110;-1.706;2024-01-30T01:48:31;23.40;;;7.77;;
11034;SDS011;5571;48.110;-1.706;2024-01-30T01:50:57;24.13;;;7.40;;
11034;SDS011;5571;48.110;-1.706;2024-01-30T01:53:23;14.30;;;6.53;;
11034;SDS011;5571;48.110;-1.706;2024-01-30T01:55:49;20.97;;;7.60;;
11034;SDS011;5571;48.110;-1.706;2024-01-30T01:58:15;21.57;;;6.90;;
11034;SDS011;5571;48.110;-1.706;2024-01-30T02:00:41;18.37;;;6.77;;
11034;SDS011;5571;48.110;-1.706;2024-01-30T02:03:08;20.93;;;6.57;;
11034;SDS011;5571;48.110;-1.706;2024-01-30T02:10:26;14.00;;;5.17;;
11034;SDS011;5571;48.110;-1.706;2024-01-30T02:12:52;17.73;;;5.13;;
11034;SDS011;5571;48.110;-1.706;2024-01-30T02:15:18;11.17;;;4.77;;
11034;SDS011;5571;48.110;-1.706;2024-01-30T02:17:43;11.63;;;4.27;;
11034;SDS011;5571;48.110;-1.706;2024-01-30T02:20:09;12.20;;;3.80;;
11034;SDS011;5571;48.110;-1.706;2024-01-30T02:22:35;10.70;;;3.67;;
11034;SDS011;5571;48.110;-1.706;2024-01-30T02:25:02;11.40;;;3.57;;
11034;SDS011;5571;48.110;-1.706;2024-01-30T02:27:28;15.13;;;3.97;;
11034;SDS011;5571;48.110;-1.706;2024-01-30T02:29:54;9.90;;;4.03;;
11034;SDS011;5571;48.110;-1.706;2024-01-30T02:32:19;9.67;;;3.77;;
11034;SDS011;5571;48.110;-1.706;2024-01-30T02:34:45;7.90;;;3.27;;
11034;SDS011;5571;48.110;-1.706;2024-01-30T02:37:10;7.80;;;3.30;;
11034;SDS011;5571;48.110;-1.706;2024-01-30T02:39:36;7.93;;;2.87;;
11034;SDS011;5571;48.110;-1.706;2024-01-30T02:42:01;5.93;;;2.63;;
11034;SDS011;5571;48.110;-1.706;2024-01-30T02:44:27;9.47;;;2.73;;
11034;SDS011;5571;48.110;-1.706;2024-01-30T02:46:53;6.77;;;2.57;;
11034;SDS011;5571;48.110;-1.706;2024-01-30T02:49:19;8.07;;;2.60;;
11034;SDS011;5571;48.110;-1.706;2024-01-30T02:51:45;4.10;;;2.50;;
11034;SDS011;5571;48.110;-1.706;2024-01-30T02:54:10;5.93;;;2.77;;
11034;SDS011;5571;48.110;-1.706;2024-01-30T02:56:36;6.97;;;2.43;;
11034;SDS011;5571;48.110;-1.706;2024-01-30T02:59:01;5.50;;;2.17;;
11034;SDS011;5571;48.110;-1.706;2024-01-30T03:01:27;5.70;;;2.20;;
11034;SDS011;5571;48.110;-1.706;2024-01-30T03:03:52;5.83;;;1.83;;
11034;SDS011;5571;48.110;-1.706;2024-01-30T03:06:18;4.70;;;1.90;;
11034;SDS011;5571;48.110;-1.706;2024-01-30T03:08:45;9.87;;;2.50;;
11034;SDS011;5571;48.110;-1.706;2024-01-30T03:11:10;7.03;;;2.20;;
11034;SDS011;5571;48.110;-1.706;2024-01-30T03:13:36;6.23;;;1.90;;
11034;SDS011;5571;48.110;-1.706;2024-01-30T03:16:01;6.30;;;1.90;;
11034;SDS011;5571;48.110;-1.706;2024-01-30T03:18:27;3.67;;;1.50;;
11034;SDS011;5571;48.110;-1.706;2024-01-30T03:20:53;4.83;;;1.23;;
11034;SDS011;5571;48.110;-1.706;2024-01-30T03:23:18;2.17;;;1.33;;
11034;SDS011;5571;48.110;-1.706;2024-01-30T03:25:44;2.27;;;0.83;;
11034;SDS011;5571;48.110;-1.706;2024-01-30T03:28:10;1.50;;;1.20;;
11034;SDS011;5571;48.110;-1.706;2024-01-30T03:30:36;3.10;;;1.30;;
11034;SDS011;5571;48.110;-1.706;2024-01-30T03:33:02;2.57;;;1.20;;
11034;SDS011;5571;48.110;-1.706;2024-01-30T03:35:27;5.33;;;1.20;;
11034;SDS011;5571;48.110;-1.706;2024-01-30T03:37:53;1.90;;;1.00;;
11034;SDS011;5571;48.110;-1.706;2024-01-30T03:40:18;2.97;;;1.13;;
11034;SDS011;5571;48.110;-1.706;2024-01-30T03:42:44;2.43;;;1.10;;
11034;SDS011;5571;48.110;-1.706;2024-01-30T03:45:10;3.07;;;1.10;;
11034;SDS011;5571;48.110;-1.706;2024-01-30T03:47:36;2.90;;;1.17;;
11034;SDS011;5571;48.110;-1.706;2024-01-30T03:50:01;3.20;;;1.47;;
11034;SDS011;5571;48.110;-1.706;2024-01-30T03:52:27;3.97;;;1.70;;
11034;SDS011;5571;48.110;-1.706;2024-01-30T03:54:53;5.30;;;1.90;;
11034;SDS011;5571;48.110;-1.706;2024-01-30T03:57:18;3.50;;;1.47;;
11034;SDS011;5571;48.110;-1.706;2024-01-30T03:59:44;2.33;;;1.40;;
11034;SDS011;5571;48.110;-1.706;2024-01-30T04:02:10;2.30;;;1.10;;
11034;SDS011;5571;48.110;-1.706;2024-01-30T04:04:36;3.13;;;0.80;;
11034;SDS011;5571;48.110;-1.706;2024-01-30T04:07:03;3.23;;;1.10;;
11034;SDS011;5571;48.110;-1.706;2024-01-30T04:09:29;4.07;;;1.03;;
11034;SDS011;5571;48.110;-1.706;2024-01-30T04:11:54;3.47;;;1.27;;
11034;SDS011;5571;48.110;-1.706;2024-01-30T04:14:20;3.10;;;1.00;;
11034;SDS011;5571;48.110;-1.706;2024-01-30T04:16:46;3.60;;;1.57;;
11034;SDS011;5571;48.110;-1.706;2024-01-30T04:19:11;4.20;;;1.23;;
11034;SDS011;5571;48.110;-1.706;2024-01-30T04:21:37;2.00;;;1.10;;
11034;SDS011;5571;48.110;-1.706;2024-01-30T04:24:02;2.87;;;1.13;;
11034;SDS011;5571;48.110;-1.706;2024-01-30T04:26:28;4.07;;;1.17;;
11034;SDS011;5571;48.110;-1.706;2024-01-30T04:28:54;1.83;;;0.93;;
11034;SDS011;5571;48.110;-1.706;2024-01-30T04:31:19;2.60;;;0.90;;
11034;SDS011;5571;48.110;-1.706;2024-01-30T04:33:45;1.77;;;0.73;;
11034;SDS011;5571;48.110;-1.706;2024-01-30T04:36:10;3.50;;;1.10;;
11034;SDS011;5571;48.110;-1.706;2024-01-30T04:38:37;2.13;;;1.20;;
11034;SDS011;5571;48.110;-1.706;2024-01-30T04:41:05;4.57;;;1.20;;
11034;SDS011;5571;48.110;-1.706;2024-01-30T04:43:32;2.47;;;1.00;;
11034;SDS011;5571;48.110;-1.706;2024-01-30T04:45:58;1.87;;;1.10;;
11034;SDS011;5571;48.110;-1.706;2024-01-30T04:48:23;1.67;;;1.00;;
11034;SDS011;5571;48.110;-1.706;2024-01-30T04:50:49;1.80;;;1.00;;
11034;SDS011;5571;48.110;-1.706;2024-01-30T04:53:14;3.80;;;1.20;;
11034;SDS011;5571;48.110;-1.706;2024-01-30T04:55:40;1.83;;;0.90;;
11034;SDS011;5571;48.110;-1.706;2024-01-30T04:58:05;3.57;;;1.30;;
11034;SDS011;5571;48.110;-1.706;2024-01-30T05:00:31;2.40;;;0.90;;
11034;SDS011;5571;48.110;-1.706;2024-01-30T05:02:58;0.80;;;0.80;;
11034;SDS011;5571;48.110;-1.706;2024-01-30T05:05:24;2.63;;;0.90;;
11034;SDS011;5571;48.110;-1.706;2024-01-30T05:07:49;1.03;;;0.77;;
11034;SDS011;5571;48.110;-1.706;2024-01-30T05:10:15;0.70;;;0.70;;
11034;SDS011;5571;48.110;-1.706;2024-01-30T05:12:40;0.80;;;0.80;;
11034;SDS011;5571;48.110;-1.706;2024-01-30T05:15:06;1.83;;;1.13;;
11034;SDS011;5571;48.110;-1.706;2024-01-30T05:17:32;1.53;;;0.80;;
11034;SDS011;5571;48.110;-1.706;2024-01-30T05:19:58;3.93;;;2.70;;
11034;SDS011;5571;48.110;-1.706;2024-01-30T05:22:24;6.07;;;4.53;;
11034;SDS011;5571;48.110;-1.706;2024-01-30T05:24:49;8.90;;;4.80;;
11034;SDS011;5571;48.110;-1.706;2024-01-30T05:27:15;4.43;;;2.60;;
11034;SDS011;5571;48.110;-1.706;2024-01-30T05:29:40;1.93;;;1.20;;
11034;SDS011;5571;48.110;-1.706;2024-01-30T05:32:06;1.37;;;1.10;;
11034;SDS011;5571;48.110;-1.706;2024-01-30T05:34:32;1.17;;;0.90;;
11034;SDS011;5571;48.110;-1.706;2024-01-30T05:36:57;1.10;;;0.90;;
11034;SDS011;5571;48.110;-1.706;2024-01-30T05:39:23;1.17;;;0.60;;
11034;SDS011;5571;48.110;-1.706;2024-01-30T05:41:49;1.17;;;0.80;;
11034;SDS011;5571;48.110;-1.706;2024-01-30T05:44:15;1.03;;;0.73;;
11034;SDS011;5571;48.110;-1.706;2024-01-30T05:46:41;1.53;;;0.93;;
11034;SDS011;5571;48.110;-1.706;2024-01-30T05:49:07;0.93;;;0.73;;
11034;SDS011;5571;48.110;-1.706;2024-01-30T05:51:32;1.53;;;1.00;;
11034;SDS011;5571;48.110;-1.706;2024-01-30T05:53:58;1.70;;;0.70;;
11034;SDS011;5571;48.110;-1.706;2024-01-30T05:56:24;2.43;;;0.80;;
11034;SDS011;5571;48.110;-1.706;2024-01-30T05:58:49;1.60;;;0.53;;
11034;SDS011;5571;48.110;-1.706;2024-01-30T06:01:15;0.80;;;0.60;;
11034;SDS011;5571;48.110;-1.706;2024-01-30T06:03:41;1.40;;;1.20;;
11034;SDS011;5571;48.110;-1.706;2024-01-30T06:06:08;0.93;;;0.80;;
11034;SDS011;5571;48.110;-1.706;2024-01-30T06:08:34;3.60;;;1.10;;
11034;SDS011;5571;48.110;-1.706;2024-01-30T06:11:00;0.63;;;0.63;;
11034;SDS011;5571;48.110;-1.706;2024-01-30T06:13:26;2.77;;;0.63;;
11034;SDS011;5571;48.110;-1.706;2024-01-30T06:15:52;0.70;;;0.70;;
11034;SDS011;5571;48.110;-1.706;2024-01-30T06:18:17;1.27;;;0.90;;
11034;SDS011;5571;48.110;-1.706;2024-01-30T06:20:43;1.53;;;1.07;;
11034;SDS011;5571;48.110;-1.706;2024-01-30T06:23:09;4.57;;;1.27;;
11034;SDS011;5571;48.110;-1.706;2024-01-30T06:25:35;1.13;;;1.03;;
11034;SDS011;5571;48.110;-1.706;2024-01-30T06:28:00;5.90;;;1.13;;
11034;SDS011;5571;48.110;-1.706;2024-01-30T06:30:26;4.80;;;1.30;;
11034;SDS011;5571;48.110;-1.706;2024-01-30T06:32:52;4.83;;;0.97;;
11034;SDS011;5571;48.110;-1.706;2024-01-30T06:35:17;1.67;;;1.10;;
11034;SDS011;5571;48.110;-1.706;2024-01-30T06:37:43;1.10;;;1.00;;
11034;SDS011;5571;48.110;-1.706;2024-01-30T06:40:09;1.33;;;1.20;;
11034;SDS011;5571;48.110;-1.706;2024-01-30T06:42:35;3.97;;;3.60;;
11034;SDS011;5571;48.110;-1.706;2024-01-30T06:45:00;1.93;;;1.80;;
11034;SDS011;5571;48.110;-1.706;2024-01-30T06:47:26;1.43;;;1.33;;
11034;SDS011;5571;48.110;-1.706;2024-01-30T06:49:51;4.13;;;0.90;;
11034;SDS011;5571;48.110;-1.706;2024-01-30T06:52:17;3.20;;;1.10;;
11034;SDS011;5571;48.110;-1.706;2024-01-30T06:54:43;1.17;;;0.97;;
11034;SDS011;5571;48.110;-1.706;2024-01-30T06:57:09;2.73;;;1.40;;
11034;SDS011;5571;48.110;-1.706;2024-01-30T06:59:36;1.83;;;1.47;;
11034;SDS011;5571;48.110;-1.706;2024-01-30T07:02:08;2.67;;;1.77;;
11034;SDS011;5571;48.110;-1.706;2024-01-30T07:04:34;4.30;;;3.07;;
11034;SDS011;5571;48.110;-1.706;2024-01-30T07:07:02;2.93;;;2.03;;
11034;SDS011;5571;48.110;-1.706;2024-01-30T07:09:28;1.83;;;1.73;;
11034;SDS011;5571;48.110;-1.706;2024-01-30T07:11:54;1.97;;;1.60;;
11034;SDS011;5571;48.110;-1.706;2024-01-30T07:14:20;1.93;;;1.67;;
11034;SDS011;5571;48.110;-1.706;2024-01-30T07:16:46;1.77;;;1.50;;
11034;SDS011;5571;48.110;-1.706;2024-01-30T07:19:11;4.70;;;1.63;;
11034;SDS011;5571;48.110;-1.706;2024-01-30T07:21:37;2.70;;;1.60;;
11034;SDS011;5571;48.110;-1.706;2024-01-30T07:24:05;3.60;;;1.60;;
11034;SDS011;5571;48.110;-1.706;2024-01-30T07:26:31;1.67;;;1.57;;
11034;SDS011;5571;48.110;-1.706;2024-01-30T07:28:56;4.10;;;1.40;;
11034;SDS011;5571;48.110;-1.706;2024-01-30T07:31:22;1.50;;;1.40;;
11034;SDS011;5571;48.110;-1.706;2024-01-30T07:33:48;1.20;;;1.10;;
11034;SDS011;5571;48.110;-1.706;2024-01-30T07:36:13;3.43;;;1.30;;
11034;SDS011;5571;48.110;-1.706;2024-01-30T07:38:39;2.37;;;1.30;;
11034;SDS011;5571;48.110;-1.706;2024-01-30T07:41:05;3.10;;;1.50;;
11034;SDS011;5571;48.110;-1.706;2024-01-30T07:43:31;3.40;;;1.30;;
11034;SDS011;5571;48.110;-1.706;2024-01-30T07:45:57;1.47;;;1.37;;
11034;SDS011;5571;48.110;-1.706;2024-01-30T07:48:23;3.50;;;1.60;;
11034;SDS011;5571;48.110;-1.706;2024-01-30T07:50:49;3.63;;;1.27;;
11034;SDS011;5571;48.110;-1.706;2024-01-30T07:53:14;1.37;;;1.30;;
11034;SDS011;5571;48.110;-1.706;2024-01-30T07:55:40;1.80;;;1.53;;
11034;SDS011;5571;48.110;-1.706;2024-01-30T07:58:06;3.77;;;1.40;;
11034;SDS011;5571;48.110;-1.706;2024-01-30T08:00:32;1.77;;;1.33;;
11034;SDS011;5571;48.110;-1.706;2024-01-30T08:02:57;2.67;;;1.90;;
11034;SDS011;5571;48.110;-1.706;2024-01-30T08:05:23;2.73;;;1.87;;
11034;SDS011;5571;48.110;-1.706;2024-01-30T08:07:49;2.43;;;1.57;;
11034;SDS011;5571;48.110;-1.706;2024-01-30T08:10:15;1.90;;;1.80;;
11034;SDS011;5571;48.110;-1.706;2024-01-30T08:12:43;2.20;;;1.57;;
11034;SDS011;5571;48.110;-1.706;2024-01-30T08:15:08;3.33;;;1.90;;
11034;SDS011;5571;48.110;-1.706;2024-01-30T08:17:34;1.80;;;1.70;;
11034;SDS011;5571;48.110;-1.706;2024-01-30T08:20:00;5.50;;;2.00;;
11034;SDS011;5571;48.110;-1.706;2024-01-30T08:22:26;2.40;;;1.80;;
11034;SDS011;5571;48.110;-1.706;2024-01-30T08:24:51;2.33;;;1.60;;
11034;SDS011;5571;48.110;-1.706;2024-01-30T08:27:17;1.87;;;1.60;;
11034;SDS011;5571;48.110;-1.706;2024-01-30T08:29:43;3.17;;;2.00;;
11034;SDS011;5571;48.110;-1.706;2024-01-30T08:32:08;2.10;;;1.93;;
11034;SDS011;5571;48.110;-1.706;2024-01-30T08:34:34;3.40;;;2.07;;
11034;SDS011;5571;48.110;-1.706;2024-01-30T08:36:59;2.33;;;2.13;;
11034;SDS011;5571;48.110;-1.706;2024-01-30T08:39:25;4.43;;;2.30;;
11034;SDS011;5571;48.110;-1.706;2024-01-30T08:41:51;2.27;;;2.03;;
11034;SDS011;5571;48.110;-1.706;2024-01-30T08:44:16;2.23;;;1.73;;
11034;SDS011;5571;48.110;-1.706;2024-01-30T08:46:43;2.20;;;2.10;;
11034;SDS011;5571;48.110;-1.706;2024-01-30T08:49:10;2.97;;;1.97;;
11034;SDS011;5571;48.110;-1.706;2024-01-30T08:51:38;2.40;;;2.20;;
11034;SDS011;5571;48.110;-1.706;2024-01-30T08:54:06;2.00;;;1.80;;
11034;SDS011;5571;48.110;-1.706;2024-01-30T08:56:32;3.13;;;2.10;;
11034;SDS011;5571;48.110;-1.706;2024-01-30T08:58:58;3.47;;;1.80;;
11034;SDS011;5571;48.110;-1.706;2024-01-30T09:01:24;3.17;;;1.83;;
11034;SDS011;5571;48.110;-1.706;2024-01-30T09:03:50;2.90;;;2.00;;
11034;SDS011;5571;48.110;-1.706;2024-01-30T09:06:16;2.20;;;2.00;;
11034;SDS011;5571;48.110;-1.706;2024-01-30T09:08:41;2.30;;;2.10;;
11034;SDS011;5571;48.110;-1.706;2024-01-30T09:11:11;3.60;;;2.00;;
11034;SDS011;5571;48.110;-1.706;2024-01-30T09:13:37;3.07;;;2.30;;
11034;SDS011;5571;48.110;-1.706;2024-01-30T09:16:02;2.10;;;1.90;;
11034;SDS011;5571;48.110;-1.706;2024-01-30T09:18:28;3.27;;;2.40;;
11034;SDS011;5571;48.110;-1.706;2024-01-30T09:20:54;2.20;;;2.10;;
11034;SDS011;5571;48.110;-1.706;2024-01-30T09:23:19;2.53;;;2.20;;
11034;SDS011;5571;48.110;-1.706;2024-01-30T09:25:45;2.20;;;2.10;;
11034;SDS011;5571;48.110;-1.706;2024-01-30T09:28:11;2.93;;;2.27;;
11034;SDS011;5571;48.110;-1.706;2024-01-30T09:30:36;4.07;;;1.90;;
11034;SDS011;5571;48.110;-1.706;2024-01-30T09:33:02;2.77;;;1.70;;
11034;SDS011;5571;48.110;-1.706;2024-01-30T09:35:28;3.37;;;1.87;;
11034;SDS011;5571;48.110;-1.706;2024-01-30T09:37:55;2.27;;;1.80;;
11034;SDS011;5571;48.110;-1.706;2024-01-30T09:40:21;6.40;;;1.70;;
11034;SDS011;5571;48.110;-1.706;2024-01-30T09:42:47;1.90;;;1.63;;
11034;SDS011;5571;48.110;-1.706;2024-01-30T09:45:15;3.03;;;2.00;;
11034;SDS011;5571;48.110;-1.706;2024-01-30T09:47:44;3.83;;;2.00;;
11034;SDS011;5571;48.110;-1.706;2024-01-30T09:50:11;3.63;;;1.93;;
11034;SDS011;5571;48.110;-1.706;2024-01-30T09:52:38;5.43;;;1.90;;
11034;SDS011;5571;48.110;-1.706;2024-01-30T09:55:04;2.10;;;1.90;;
11034;SDS011;5571;48.110;-1.706;2024-01-30T09:57:31;1.57;;;1.50;;
11034;SDS011;5571;48.110;-1.706;2024-01-30T09:59:57;3.33;;;1.73;;
11034;SDS011;5571;48.110;-1.706;2024-01-30T10:02:23;2.57;;;1.60;;
11034;SDS011;5571;48.110;-1.706;2024-01-30T10:04:49;1.93;;;1.50;;
11034;SDS011;5571;48.110;-1.706;2024-01-30T10:07:15;1.83;;;1.73;;
11034;SDS011;5571;48.110;-1.706;2024-01-30T10:09:44;2.47;;;1.60;;
11034;SDS011;5571;48.110;-1.706;2024-01-30T10:12:11;1.57;;;1.47;;
11034;SDS011;5571;48.110;-1.706;2024-01-30T10:14:40;5.07;;;1.20;;
11034;SDS011;5571;48.110;-1.706;2024-01-30T10:17:09;1.70;;;1.50;;
11034;SDS011;5571;48.110;-1.706;2024-01-30T10:19:40;1.70;;;1.50;;
11034;SDS011;5571;48.110;-1.706;2024-01-30T10:22:06;3.77;;;1.57;;
11034;SDS011;5571;48.110;-1.706;2024-01-30T10:24:35;1.27;;;1.20;;
11034;SDS011;5571;48.110;-1.706;2024-01-30T10:27:02;2.00;;;1.47;;
11034;SDS011;5571;48.110;-1.706;2024-01-30T10:29:27;1.77;;;1.60;;
11034;SDS011;5571;48.110;-1.706;2024-01-30T10:32:12;2.47;;;1.50;;
11034;SDS011;5571;48.110;-1.706;2024-01-30T10:34:37;1.40;;;1.30;;
11034;SDS011;5571;48.110;-1.706;2024-01-30T10:37:10;1.40;;;1.40;;
11034;SDS011;5571;48.110;-1.706;2024-01-30T10:39:42;2.67;;;1.57;;
11034;SDS011;5571;48.110;-1.706;2024-01-30T10:42:11;1.70;;;1.50;;
11034;SDS011;5571;48.110;-1.706;2024-01-30T10:45:06;2.27;;;1.40;;
11034;SDS011;5571;48.110;-1.706;2024-01-30T10:47:42;1.97;;;1.80;;
11034;SDS011;5571;48.110;-1.706;2024-01-30T10:50:09;7.03;;;4.00;;
11034;SDS011;5571;48.110;-1.706;2024-01-30T10:52:35;5.87;;;2.10;;
11034;SDS011;5571;48.110;-1.706;2024-01-30T10:55:02;1.43;;;1.30;;
11034;SDS011;5571;48.110;-1.706;2024-01-30T10:57:31;4.13;;;1.10;;
11034;SDS011;5571;48.110;-1.706;2024-01-30T10:59:59;1.53;;;1.10;;
11034;SDS011;5571;48.110;-1.706;2024-01-30T11:02:30;1.00;;;0.83;;
11034;SDS011;5571;48.110;-1.706;2024-01-30T11:04:57;1.97;;;0.90;;
11034;SDS011;5571;48.110;-1.706;2024-01-30T11:07:27;3.03;;;1.30;;
11034;SDS011;5571;48.110;-1.706;2024-01-30T11:09:59;1.53;;;1.10;;
11034;SDS011;5571;48.110;-1.706;2024-01-30T11:12:26;1.67;;;1.20;;
11034;SDS011;5571;48.110;-1.706;2024-01-30T11:15:04;2.23;;;2.03;;
11034;SDS011;5571;48.110;-1.706;2024-01-30T11:20:14;2.20;;;1.00;;
11034;SDS011;5571;48.110;-1.706;2024-01-30T11:22:47;2.83;;;1.60;;
11034;SDS011;5571;48.110;-1.706;2024-01-30T11:25:16;2.50;;;1.30;;
11034;SDS011;5571;48.110;-1.706;2024-01-30T11:27:44;3.77;;;1.40;;
11034;SDS011;5571;48.110;-1.706;2024-01-30T11:30:20;2.80;;;1.40;;
11034;SDS011;5571;48.110;-1.706;2024-01-30T11:33:06;2.73;;;1.40;;
11034;SDS011;5571;48.110;-1.706;2024-01-30T11:38:08;5.93;;;1.00;;
11034;SDS011;5571;48.110;-1.706;2024-01-30T11:40:36;0.90;;;0.70;;
11034;SDS011;5571;48.110;-1.706;2024-01-30T11:43:03;1.67;;;1.20;;
11034;SDS011;5571;48.110;-1.706;2024-01-30T11:45:30;2.80;;;1.30;;
11034;SDS011;5571;48.110;-1.706;2024-01-30T11:47:58;1.63;;;1.40;;
11034;SDS011;5571;48.110;-1.706;2024-01-30T11:50:28;3.20;;;1.50;;
11034;SDS011;5571;48.110;-1.706;2024-01-30T11:52:59;3.03;;;1.50;;
11034;SDS011;5571;48.110;-1.706;2024-01-30T11:55:25;1.23;;;1.13;;
11034;SDS011;5571;48.110;-1.706;2024-01-30T11:57:51;1.83;;;1.47;;
11034;SDS011;5571;48.110;-1.706;2024-01-30T12:00:20;1.70;;;1.50;;
11034;SDS011;5571;48.110;-1.706;2024-01-30T12:02:49;2.73;;;1.37;;
11034;SDS011;5571;48.110;-1.706;2024-01-30T12:05:27;2.27;;;1.40;;
11034;SDS011;5571;48.110;-1.706;2024-01-30T12:07:53;2.33;;;1.30;;
11034;SDS011;5571;48.110;-1.706;2024-01-30T12:10:19;3.80;;;1.47;;
11034;SDS011;5571;48.110;-1.706;2024-01-30T12:12:49;3.43;;;1.30;;
11034;SDS011;5571;48.110;-1.706;2024-01-30T12:15:15;1.80;;;1.07;;
11034;SDS011;5571;48.110;-1.706;2024-01-30T12:17:41;3.53;;;1.13;;
11034;SDS011;5571;48.110;-1.706;2024-01-30T12:20:08;2.77;;;1.50;;
11034;SDS011;5571;48.110;-1.706;2024-01-30T12:22:36;3.03;;;1.30;;
11034;SDS011;5571;48.110;-1.706;2024-01-30T12:25:13;2.30;;;1.47;;
11034;SDS011;5571;48.110;-1.706;2024-01-30T12:27:44;8.43;;;1.90;;
11034;SDS011;5571;48.110;-1.706;2024-01-30T12:30:12;5.70;;;1.27;;
11034;SDS011;5571;48.110;-1.706;2024-01-30T12:32:45;2.37;;;1.00;;
11034;SDS011;5571;48.110;-1.706;2024-01-30T12:35:14;1.83;;;0.70;;
11034;SDS011;5571;48.110;-1.706;2024-01-30T12:37:44;4.20;;;1.07;;
11034;SDS011;5571;48.110;-1.706;2024-01-30T12:40:10;2.00;;;0.80;;
11034;SDS011;5571;48.110;-1.706;2024-01-30T12:42:39;7.87;;;1.27;;
11034;SDS011;5571;48.110;-1.706;2024-01-30T12:45:06;10.10;;;1.67;;
11034;SDS011;5571;48.110;-1.706;2024-01-30T12:47:33;7.13;;;1.40;;
11034;SDS011;5571;48.110;-1.706;2024-01-30T12:49:58;3.67;;;1.47;;
11034;SDS011;5571;48.110;-1.706;2024-01-30T12:52:24;3.67;;;1.77;;
11034;SDS011;5571;48.110;-1.706;2024-01-30T12:54:50;3.20;;;1.63;;
11034;SDS011;5571;48.110;-1.706;2024-01-30T12:57:16;2.10;;;1.17;;
11034;SDS011;5571;48.110;-1.706;2024-01-30T12:59:43;2.03;;;1.00;;
11034;SDS011;5571;48.110;-1.706;2024-01-30T13:02:09;1.87;;;0.90;;
11034;SDS011;5571;48.110;-1.706;2024-01-30T13:04:35;1.77;;;0.90;;
11034;SDS011;5571;48.110;-1.706;2024-01-30T13:07:01;2.83;;;0.77;;
11034;SDS011;5571;48.110;-1.706;2024-01-30T13:09:28;1.23;;;0.97;;
11034;SDS011;5571;48.110;-1.706;2024-01-30T13:11:55;2.07;;;1.03;;
11034;SDS011;5571;48.110;-1.706;2024-01-30T13:14:21;2.90;;;1.10;;
11034;SDS011;5571;48.110;-1.706;2024-01-30T13:16:46;1.23;;;0.77;;
11034;SDS011;5571;48.110;-1.706;2024-01-30T13:19:12;3.33;;;0.80;;
11034;SDS011;5571;48.110;-1.706;2024-01-30T13:21:38;0.80;;;0.63;;
11034;SDS011;5571;48.110;-1.706;2024-01-30T13:24:04;0.50;;;0.50;;
11034;SDS011;5571;48.110;-1.706;2024-01-30T13:26:31;1.93;;;0.60;;
11034;SDS011;5571;48.110;-1.706;2024-01-30T13:28:57;0.97;;;0.50;;
11034;SDS011;5571;48.110;-1.706;2024-01-30T13:31:23;2.03;;;0.97;;
11034;SDS011;5571;48.110;-1.706;2024-01-30T13:33:48;3.00;;;1.10;;
11034;SDS011;5571;48.110;-1.706;2024-01-30T13:36:14;4.00;;;1.07;;
11034;SDS011;5571;48.110;-1.706;2024-01-30T13:38:40;1.10;;;0.90;;
11034;SDS011;5571;48.110;-1.706;2024-01-30T13:41:06;4.87;;;1.10;;
11034;SDS011;5571;48.110;-1.706;2024-01-30T13:43:31;2.73;;;0.70;;
11034;SDS011;5571;48.110;-1.706;2024-01-30T13:45:57;1.73;;;0.70;;
11034;SDS011;5571;48.110;-1.706;2024-01-30T13:48:23;1.93;;;0.57;;
11034;SDS011;5571;48.110;-1.706;2024-01-30T13:50:49;0.87;;;0.60;;
11034;SDS011;5571;48.110;-1.706;2024-01-30T13:53:15;0.93;;;0.90;;
11034;SDS011;5571;48.110;-1.706;2024-01-30T13:55:40;1.93;;;0.70;;
11034;SDS011;5571;48.110;-1.706;2024-01-30T13:58:06;0.43;;;0.40;;
11034;SDS011;5571;48.110;-1.706;2024-01-30T14:00:32;0.43;;;0.40;;
11034;SDS011;5571;48.110;-1.706;2024-01-30T14:02:59;4.77;;;0.53;;
11034;SDS011;5571;48.110;-1.706;2024-01-30T14:05:25;1.63;;;0.60;;
11034;SDS011;5571;48.110;-1.706;2024-01-30T14:07:53;1.17;;;0.60;;
11034;SDS011;5571;48.110;-1.706;2024-01-30T14:10:18;1.07;;;0.57;;
11034;SDS011;5571;48.110;-1.706;2024-01-30T14:12:44;1.30;;;0.40;;
11034;SDS011;5571;48.110;-1.706;2024-01-30T14:15:11;0.63;;;0.40;;
11034;SDS011;5571;48.110;-1.706;2024-01-30T14:17:37;1.50;;;0.50;;
11034;SDS011;5571;48.110;-1.706;2024-01-30T14:20:03;0.70;;;0.50;;
11034;SDS011;5571;48.110;-1.706;2024-01-30T14:22:30;1.37;;;0.70;;
11034;SDS011;5571;48.110;-1.706;2024-01-30T14:24:56;0.60;;;0.60;;
11034;SDS011;5571;48.110;-1.706;2024-01-30T14:27:22;1.23;;;0.70;;
11034;SDS011;5571;48.110;-1.706;2024-01-30T14:29:47;1.67;;;0.50;;
11034;SDS011;5571;48.110;-1.706;2024-01-30T14:32:13;1.43;;;1.20;;
11034;SDS011;5571;48.110;-1.706;2024-01-30T14:34:39;3.97;;;0.90;;
11034;SDS011;5571;48.110;-1.706;2024-01-30T14:37:04;1.33;;;1.00;;
11034;SDS011;5571;48.110;-1.706;2024-01-30T14:39:30;2.50;;;0.70;;
11034;SDS011;5571;48.110;-1.706;2024-01-30T14:41:56;2.13;;;0.90;;
11034;SDS011;5571;48.110;-1.706;2024-01-30T14:44:22;1.07;;;0.53;;
11034;SDS011;5571;48.110;-1.706;2024-01-30T14:46:48;0.77;;;0.77;;
11034;SDS011;5571;48.110;-1.706;2024-01-30T14:49:14;2.30;;;0.90;;
11034;SDS011;5571;48.110;-1.706;2024-01-30T14:51:40;0.80;;;0.60;;